createdAt,value
2023-12-20T06:29:08.249Z,10.35
2023-12-20T06:31:35.852Z,9.38
2023-12-20T06:34:08.567Z,8.18
2023-12-20T06:36:36.003Z,7.05
2023-12-20T06:39:03.418Z,8.38
2023-12-20T06:41:30.860Z,8.40
2023-12-20T06:43:58.244Z,8.10
2023-12-20T06:46:25.707Z,8.13
2023-12-20T06:48:53.026Z,8.43
2023-12-20T06:51:21.671Z,7.82
2023-12-20T06:53:49.153Z,7.70
2023-12-20T06:56:19.532Z,9.57
2023-12-20T06:58:48.020Z,9.93
2023-12-20T07:01:16.715Z,7.63
2023-12-20T07:03:44.846Z,9.45
2023-12-20T07:06:12.496Z,7.13
2023-12-20T07:08:42.000Z,10.13
2023-12-20T07:11:09.501Z,6.95
2023-12-20T07:13:37.041Z,6.90
2023-12-20T07:16:04.807Z,6.82
2023-12-20T07:18:32.166Z,6.72
2023-12-20T07:20:59.688Z,6.97
2023-12-20T07:23:28.025Z,8.57
2023-12-20T07:25:55.300Z,6.95
2023-12-20T07:28:22.835Z,6.32
2023-12-20T07:30:50.370Z,5.82
2023-12-20T07:33:17.971Z,6.60
2023-12-20T07:35:47.094Z,6.97
2023-12-20T07:38:14.656Z,6.03
2023-12-20T07:40:41.932Z,7.90
2023-12-20T07:43:09.459Z,7.10
2023-12-20T07:45:36.952Z,7.85
2023-12-20T07:48:06.413Z,6.95
2023-12-20T07:50:34.421Z,7.78
2023-12-20T07:53:02.438Z,6.30
2023-12-20T07:55:30.098Z,7.65
2023-12-20T07:57:57.595Z,6.43
2023-12-20T08:00:25.105Z,7.28
2023-12-20T08:02:52.447Z,6.15
2023-12-20T08:05:19.878Z,6.13
2023-12-20T08:07:47.588Z,8.45
2023-12-20T08:10:15.056Z,7.07
2023-12-20T08:12:42.543Z,7.32
2023-12-20T08:15:10.311Z,8.02
2023-12-20T08:17:37.768Z,6.78
2023-12-20T08:20:06.352Z,6.18
2023-12-20T08:22:34.050Z,6.80
2023-12-20T08:25:01.367Z,6.13
2023-12-20T08:27:28.920Z,5.43
2023-12-20T08:29:56.301Z,10.60
2023-12-20T08:32:23.635Z,6.43
2023-12-20T08:34:51.311Z,7.18
2023-12-20T08:37:19.021Z,7.20
2023-12-20T08:39:46.447Z,6.93
2023-12-20T08:42:14.032Z,5.10
2023-12-20T08:44:41.389Z,6.63
2023-12-20T08:47:08.791Z,7.50
2023-12-20T08:49:36.279Z,8.40
2023-12-20T08:52:04.033Z,9.98
2023-12-20T08:54:31.318Z,8.43
2023-12-20T08:56:58.761Z,7.75
2023-12-20T08:59:26.534Z,7.55
2023-12-20T09:01:56.243Z,10.00
2023-12-20T09:04:23.846Z,7.68
2023-12-20T09:06:51.483Z,8.68
2023-12-20T09:09:18.820Z,9.85
2023-12-20T09:11:47.702Z,11.55
2023-12-20T09:14:15.297Z,7.22
2023-12-20T09:16:42.727Z,7.68
2023-12-20T09:19:10.086Z,8.48
2023-12-20T09:21:37.629Z,8.02
2023-12-20T09:24:05.064Z,8.55
2023-12-20T09:26:32.607Z,4.80
2023-12-20T09:28:59.978Z,4.28
2023-12-20T09:31:27.419Z,4.43
2023-12-20T09:33:54.931Z,5.18
2023-12-20T09:36:22.620Z,3.60
2023-12-20T09:38:49.880Z,4.32
2023-12-20T09:41:17.485Z,4.07
2023-12-20T09:43:45.031Z,1.80
2023-12-20T09:46:14.968Z,1.80
2023-12-20T09:48:43.002Z,1.17
2023-12-20T09:51:10.511Z,1.00
2023-12-20T09:53:39.891Z,1.92
2023-12-20T09:56:07.798Z,2.97
2023-12-20T09:58:38.655Z,0.98
2023-12-20T10:01:06.958Z,7.13
2023-12-20T10:03:35.215Z,2.08
2023-12-20T10:06:03.060Z,2.05
2023-12-20T10:08:31.526Z,1.45
2023-12-20T10:11:04.129Z,1.50
2023-12-20T10:15:59.186Z,4.50
2023-12-20T10:18:37.647Z,6.35
2023-12-20T10:21:08.695Z,4.15
2023-12-20T10:23:36.223Z,1.90
2023-12-20T10:26:03.845Z,3.72
2023-12-20T10:28:36.223Z,3.58
2023-12-20T10:31:04.366Z,2.13
2023-12-20T10:33:34.247Z,1.30
2023-12-20T10:36:02.107Z,1.70
2023-12-20T10:38:32.013Z,3.00
2023-12-20T10:41:02.468Z,2.20
2023-12-20T10:43:32.287Z,2.35
2023-12-20T10:46:00.731Z,2.00
2023-12-20T10:48:31.841Z,2.40
2023-12-20T10:50:59.752Z,2.97
2023-12-20T10:53:27.301Z,2.05
2023-12-20T10:55:58.480Z,4.45
2023-12-20T10:58:28.479Z,2.53
2023-12-20T11:01:06.197Z,3.72
2023-12-20T11:03:38.659Z,3.10
2023-12-20T11:06:17.298Z,2.47
2023-12-20T11:08:53.787Z,1.67
2023-12-20T11:11:42.443Z,2.67
2023-12-20T11:14:20.457Z,2.60
2023-12-20T11:16:54.278Z,1.92
2023-12-20T11:19:23.032Z,1.88
2023-12-20T11:21:50.484Z,2.50
2023-12-20T11:24:18.726Z,1.77
2023-12-20T11:26:50.403Z,1.70
2023-12-20T11:29:35.006Z,6.45
2023-12-20T11:32:25.794Z,2.15
2023-12-20T11:34:55.735Z,3.72
2023-12-20T11:37:23.624Z,2.10
2023-12-20T11:39:58.128Z,2.78
2023-12-20T11:42:25.685Z,4.00
2023-12-20T11:44:53.326Z,1.55
2023-12-20T11:47:21.400Z,7.50
2023-12-20T11:49:50.337Z,4.38
2023-12-20T11:52:17.938Z,1.27
2023-12-20T11:54:45.371Z,1.65
2023-12-20T11:57:12.918Z,1.65
2023-12-20T11:59:40.360Z,2.95
2023-12-20T12:02:08.099Z,2.20
2023-12-20T12:04:36.244Z,2.05
2023-12-20T12:07:04.660Z,2.00
2023-12-20T12:09:32.132Z,14.30
2023-12-20T12:12:00.003Z,4.25
2023-12-20T12:14:27.618Z,1.30
2023-12-20T12:16:55.960Z,2.33
2023-12-20T12:19:28.009Z,2.72
2023-12-20T12:22:18.174Z,3.00
2023-12-20T12:24:46.021Z,0.80
2023-12-20T12:27:17.359Z,0.90
2023-12-20T12:30:05.869Z,3.13
2023-12-20T12:32:34.151Z,1.83
2023-12-20T12:35:01.918Z,7.65
2023-12-20T12:37:29.703Z,34.55
2023-12-20T12:39:58.127Z,3.13
2023-12-20T12:42:30.176Z,7.43
2023-12-20T12:44:57.853Z,5.55
2023-12-20T12:47:25.657Z,4.57
2023-12-20T12:49:54.794Z,4.40
2023-12-20T12:52:22.437Z,8.52
2023-12-20T12:54:50.482Z,6.82
2023-12-20T12:57:18.992Z,6.63
2023-12-20T12:59:50.027Z,6.03
2023-12-20T13:02:17.883Z,7.07
2023-12-20T13:04:45.322Z,4.68
2023-12-20T13:07:13.504Z,11.57
2023-12-20T13:09:41.323Z,9.50
2023-12-20T13:12:09.248Z,10.15
2023-12-20T13:14:39.898Z,17.92
2023-12-20T13:17:07.365Z,14.75
2023-12-20T13:19:35.039Z,16.77
2023-12-20T13:22:02.781Z,27.20
2023-12-20T13:24:31.278Z,51.47
2023-12-20T13:26:58.786Z,21.45
2023-12-20T13:29:28.634Z,5.32
2023-12-20T13:31:56.292Z,11.85
2023-12-20T13:34:23.873Z,17.65
2023-12-20T13:36:52.379Z,22.85
2023-12-20T13:39:20.481Z,37.58
2023-12-20T13:41:47.946Z,11.02
2023-12-20T13:44:15.781Z,5.20
2023-12-20T13:46:44.239Z,5.38
2023-12-20T13:49:12.465Z,6.90
2023-12-20T13:51:40.626Z,5.75
2023-12-20T13:54:08.081Z,8.85
2023-12-20T13:56:43.529Z,7.43
2023-12-20T13:59:16.521Z,5.82
2023-12-20T14:01:43.962Z,4.65
2023-12-20T14:04:12.980Z,5.63
2023-12-20T14:07:00.486Z,9.18
2023-12-20T14:09:27.915Z,8.30
2023-12-20T14:11:56.285Z,11.77
2023-12-20T14:14:24.540Z,10.43
2023-12-20T14:16:52.421Z,8.35
2023-12-20T14:19:19.811Z,9.75
2023-12-20T14:21:48.053Z,8.55
2023-12-20T14:24:16.586Z,23.05
2023-12-20T14:26:43.947Z,38.58
2023-12-20T14:29:15.095Z,42.88
2023-12-20T14:31:42.670Z,45.83
2023-12-20T14:34:10.118Z,93.05
2023-12-20T14:36:38.756Z,12.77
2023-12-20T14:39:08.277Z,36.60
2023-12-20T14:41:36.021Z,16.70
2023-12-20T14:44:06.197Z,17.58
2023-12-20T14:46:34.133Z,15.07
2023-12-20T14:49:04.005Z,34.03
2023-12-20T14:51:32.986Z,71.50
2023-12-20T14:54:00.637Z,29.10
2023-12-20T14:56:28.507Z,27.27
2023-12-20T14:58:56.357Z,49.78
2023-12-20T15:01:25.365Z,41.33
2023-12-20T15:03:52.786Z,26.58
2023-12-20T15:06:21.868Z,43.85
2023-12-20T15:08:49.440Z,29.83
2023-12-20T15:11:17.023Z,19.60
2023-12-20T15:13:44.794Z,26.90
2023-12-20T15:16:12.191Z,30.73
2023-12-20T15:18:39.886Z,16.73
2023-12-20T15:21:07.998Z,40.13
2023-12-20T15:23:35.455Z,24.85
2023-12-20T15:26:02.812Z,50.88
2023-12-20T15:28:31.988Z,38.20
2023-12-20T15:30:59.567Z,24.10
2023-12-20T15:33:26.943Z,28.45
2023-12-20T15:35:54.439Z,21.50
2023-12-20T15:38:21.823Z,17.27
2023-12-20T15:40:50.079Z,34.30
2023-12-20T15:43:17.516Z,19.88
2023-12-20T15:45:47.434Z,14.95
2023-12-20T15:48:19.998Z,9.75
2023-12-20T15:50:48.162Z,6.60
2023-12-20T15:53:16.176Z,9.77
2023-12-20T15:55:46.146Z,8.50
2023-12-20T15:58:14.023Z,16.48
2023-12-20T16:00:41.880Z,10.32
2023-12-20T16:03:23.848Z,10.88
2023-12-20T16:05:55.734Z,13.32
2023-12-20T16:08:23.650Z,19.73
2023-12-20T16:10:50.969Z,29.15
2023-12-20T16:13:18.663Z,23.60
2023-12-20T16:15:46.424Z,27.83
2023-12-20T16:18:13.853Z,22.85
2023-12-20T16:20:43.650Z,10.27
2023-12-20T16:23:12.240Z,14.18
2023-12-20T16:25:40.779Z,9.35
2023-12-20T16:28:08.219Z,26.63
2023-12-20T16:30:35.689Z,16.40
2023-12-20T16:33:05.019Z,24.17
2023-12-20T16:35:32.435Z,21.63
2023-12-20T16:37:59.842Z,25.38
2023-12-20T16:40:27.420Z,12.15
2023-12-20T16:42:58.618Z,35.28
2023-12-20T16:45:26.637Z,44.33
2023-12-20T16:47:54.980Z,28.27
2023-12-20T16:50:25.255Z,51.58
2023-12-20T16:52:54.078Z,52.50
2023-12-20T16:55:23.008Z,37.97
2023-12-20T16:57:51.886Z,32.58
2023-12-20T17:00:27.730Z,74.35
2023-12-20T17:02:57.310Z,58.22
2023-12-20T17:05:25.216Z,98.05
2023-12-20T17:07:54.450Z,73.80
2023-12-20T17:10:22.759Z,31.40
2023-12-20T17:12:50.329Z,135.98
2023-12-20T17:15:17.621Z,98.93
2023-12-20T17:17:46.590Z,110.15
2023-12-20T17:20:14.432Z,72.68
2023-12-20T17:22:42.185Z,71.40
2023-12-20T17:25:10.170Z,60.25
2023-12-20T17:27:38.038Z,41.67
2023-12-20T17:30:06.408Z,91.35
2023-12-20T17:32:38.581Z,103.43
2023-12-20T17:35:06.451Z,71.33
2023-12-20T17:37:34.270Z,100.60
2023-12-20T17:40:01.777Z,88.75
2023-12-20T17:42:29.456Z,82.85
2023-12-20T17:44:57.026Z,67.65
2023-12-20T17:47:25.061Z,94.82
2023-12-20T17:49:52.719Z,47.17
2023-12-20T17:52:21.622Z,63.22
2023-12-20T17:54:50.602Z,40.47
2023-12-20T17:57:23.250Z,37.85
2023-12-20T17:59:53.831Z,67.10
2023-12-20T18:02:23.250Z,45.78
2023-12-20T18:04:51.878Z,100.20
2023-12-20T18:07:21.113Z,70.82
2023-12-20T18:09:49.607Z,58.28
2023-12-20T18:12:17.774Z,78.93
2023-12-20T18:14:48.665Z,111.47
2023-12-20T18:17:16.173Z,76.25
2023-12-20T18:19:43.606Z,76.35
2023-12-20T18:22:12.864Z,109.00
2023-12-20T18:24:43.152Z,55.63
2023-12-20T18:27:11.737Z,48.53
2023-12-20T18:29:41.550Z,52.53
2023-12-20T18:32:11.384Z,43.47
2023-12-20T18:34:39.114Z,75.55
2023-12-20T18:37:14.489Z,62.28
2023-12-20T18:39:42.001Z,49.03
2023-12-20T18:42:09.492Z,43.05
2023-12-20T18:44:37.512Z,57.22
2023-12-20T18:47:05.478Z,52.30
2023-12-20T18:49:33.496Z,71.78
2023-12-20T18:52:01.117Z,44.28
2023-12-20T18:54:28.798Z,64.38
2023-12-20T18:56:56.155Z,44.80
